createdAt,value
2019-06-10T00:02:03.770Z,5.27
2019-06-10T00:04:32.869Z,6.03
2019-06-10T00:07:03.890Z,3.87
2019-06-10T00:09:33.070Z,4.10
2019-06-10T00:12:04.378Z,4.03
2019-06-10T00:14:33.881Z,5.57
2019-06-10T00:17:04.653Z,4.53
2019-06-10T00:19:34.087Z,4.13
2019-06-10T00:22:04.080Z,4.23
2019-06-10T00:24:34.665Z,4.73
2019-06-10T00:27:05.625Z,4.97
2019-06-10T00:29:34.939Z,4.60
2019-06-10T00:32:06.530Z,5.57
2019-06-10T00:34:35.487Z,4.23
2019-06-10T00:37:07.287Z,4.20
2019-06-10T00:39:36.380Z,4.23
2019-06-10T00:42:07.918Z,4.30
2019-06-10T00:44:37.352Z,3.60
2019-06-10T00:47:08.258Z,4.23
2019-06-10T00:49:37.591Z,4.63
2019-06-10T00:52:07.461Z,4.73
2019-06-10T00:54:38.152Z,5.47
2019-06-10T00:57:07.420Z,5.60
2019-06-10T00:59:36.614Z,5.37
2019-06-10T01:02:06.461Z,4.10
2019-06-10T01:04:36.811Z,7.40
2019-06-10T01:07:06.598Z,4.57
2019-06-10T01:09:35.884Z,5.67
2019-06-10T01:12:05.263Z,6.53
2019-06-10T01:14:34.788Z,4.70
2019-06-10T01:17:05.445Z,7.20
2019-06-10T01:19:35.003Z,5.37
2019-06-10T01:22:04.273Z,5.63
2019-06-10T01:24:33.487Z,4.43
2019-06-10T01:27:02.768Z,4.17
2019-06-10T01:32:23.165Z,4.47
2019-06-10T01:34:52.363Z,4.83
2019-06-10T01:37:22.034Z,6.27
2019-06-10T01:39:52.573Z,4.83
2019-06-10T01:42:21.786Z,3.93
2019-06-10T01:44:51.384Z,3.90
2019-06-10T01:47:21.572Z,4.10
2019-06-10T01:49:51.817Z,5.47
2019-06-10T01:52:22.535Z,4.90
2019-06-10T01:54:51.800Z,3.80
2019-06-10T01:57:22.016Z,5.37
2019-06-10T01:59:51.984Z,3.70
2019-06-10T02:23:17.067Z,3.93
2019-06-10T02:28:36.063Z,5.60
2019-06-10T02:31:05.279Z,5.63
2019-06-10T02:33:36.359Z,4.90
2019-06-10T02:36:05.456Z,5.00
2019-06-10T02:38:39.341Z,4.90
2019-06-10T02:41:45.488Z,5.27
2019-06-10T02:44:18.479Z,5.40
2019-06-10T02:46:46.072Z,5.20
2019-06-10T02:49:33.078Z,5.53
2019-06-10T02:54:43.868Z,4.90
2019-06-10T03:00:16.989Z,5.63
2019-06-10T03:02:38.504Z,5.10
2019-06-10T03:05:47.164Z,6.13
2019-06-10T03:08:36.641Z,5.37
2019-06-10T03:11:06.738Z,5.30
2019-06-10T03:13:35.947Z,5.27
2019-06-10T03:16:25.733Z,6.07
2019-06-10T03:18:55.222Z,5.00
2019-06-10T03:21:43.947Z,6.77
2019-06-10T03:24:13.327Z,5.43
2019-06-10T03:26:43.021Z,5.20
2019-06-10T03:29:13.058Z,5.10
2019-06-10T03:31:48.199Z,4.97
2019-06-10T03:34:15.595Z,6.67
2019-06-10T03:36:45.890Z,6.17
2019-06-10T03:39:34.542Z,5.50
2019-06-10T03:42:04.257Z,5.47
2019-06-10T03:44:33.472Z,6.17
2019-06-10T03:47:02.943Z,6.40
2019-06-10T03:52:24.063Z,5.90
2019-06-10T03:54:52.829Z,5.70
2019-06-10T03:57:24.206Z,5.13
2019-06-10T03:59:53.045Z,6.00
2019-06-10T04:02:25.122Z,6.60
2019-06-10T04:04:53.943Z,7.30
2019-06-10T04:07:42.845Z,5.50
2019-06-10T04:10:32.558Z,5.57
2019-06-10T04:13:02.643Z,6.00
2019-06-10T04:15:32.819Z,5.60
2019-06-10T04:18:24.658Z,5.00
2019-06-10T04:20:52.960Z,5.90
2019-06-10T04:23:24.222Z,5.93
2019-06-10T04:25:53.288Z,7.13
2019-06-10T04:30:56.830Z,5.73
2019-06-10T04:33:27.311Z,5.77
2019-06-10T04:35:57.011Z,7.03
2019-06-10T04:38:27.513Z,5.60
2019-06-10T04:40:57.587Z,7.10
2019-06-10T04:43:27.746Z,6.20
2019-06-10T04:46:16.851Z,7.43
2019-06-10T04:49:05.202Z,7.13
2019-06-10T04:51:34.398Z,7.97
2019-06-10T04:54:03.714Z,5.73
2019-06-10T04:56:33.539Z,7.67
2019-06-10T04:59:04.165Z,6.13
2019-06-10T05:01:34.087Z,5.80
2019-06-10T05:04:03.418Z,7.10
2019-06-10T05:06:33.070Z,5.77
2019-06-10T05:09:23.942Z,5.97
2019-06-10T05:12:12.097Z,6.70
2019-06-10T05:14:43.250Z,5.23
2019-06-10T05:17:13.324Z,5.40
2019-06-10T05:19:42.936Z,6.53
2019-06-10T05:22:33.039Z,5.27
2019-06-10T05:25:02.688Z,5.77
2019-06-10T05:27:33.946Z,5.73
2019-06-10T05:30:03.142Z,6.97
2019-06-10T05:32:33.529Z,6.37
2019-06-10T05:37:59.215Z,5.00
2019-06-10T05:40:29.380Z,6.60
2019-06-10T05:43:02.476Z,5.67
2019-06-10T05:45:34.417Z,5.13
2019-06-10T05:48:02.982Z,5.13
2019-06-10T05:50:34.981Z,5.97
2019-06-10T05:53:04.882Z,5.90
2019-06-10T05:55:35.298Z,6.27
2019-06-10T05:58:05.120Z,5.67
2019-06-10T06:00:35.527Z,6.10
2019-06-10T06:03:05.696Z,5.77
2019-06-10T06:05:37.575Z,6.13
2019-06-10T06:08:08.781Z,6.93
2019-06-10T06:10:37.866Z,5.70
2019-06-10T06:13:08.087Z,5.50
2019-06-10T06:15:38.057Z,6.47
2019-06-10T06:18:10.784Z,6.40
2019-06-10T06:20:39.607Z,6.13
2019-06-10T06:23:09.265Z,8.03
2019-06-10T06:25:44.360Z,6.03
2019-06-10T06:28:12.868Z,7.53
2019-06-10T06:30:42.264Z,6.77
2019-06-10T06:33:13.824Z,8.07
2019-06-10T06:35:46.627Z,6.63
2019-06-10T06:38:26.875Z,6.23
2019-06-10T06:40:56.282Z,7.07
2019-06-10T06:43:28.918Z,7.90
2019-06-10T06:45:56.942Z,6.77
2019-06-10T06:48:27.835Z,6.67
2019-06-10T06:51:04.359Z,7.43
2019-06-10T06:53:37.291Z,7.47
2019-06-10T06:55:59.920Z,6.73
2019-06-10T06:58:29.191Z,6.20
2019-06-10T07:01:39.581Z,7.20
2019-06-10T07:04:09.519Z,7.83
2019-06-10T07:06:59.437Z,6.13
2019-06-10T07:10:08.088Z,6.53
2019-06-10T07:13:17.003Z,6.77
2019-06-10T07:16:05.640Z,6.47
2019-06-10T07:18:41.206Z,6.63
2019-06-10T07:21:24.860Z,6.53
2019-06-10T07:23:54.542Z,8.33
2019-06-10T07:26:23.753Z,8.57
2019-06-10T07:28:53.890Z,6.60
2019-06-10T07:31:27.856Z,6.83
2019-06-10T07:33:54.895Z,7.23
2019-06-10T07:36:24.204Z,7.67
2019-06-10T07:38:54.201Z,6.67
2019-06-10T07:41:24.777Z,8.30
2019-06-10T07:43:54.076Z,7.17
2019-06-10T07:47:02.759Z,9.00
2019-06-10T07:49:33.784Z,6.23
2019-06-10T07:52:12.974Z,6.17
2019-06-10T07:54:35.928Z,6.97
2019-06-10T07:57:05.549Z,6.57
2019-06-10T07:59:35.445Z,7.33
2019-06-10T08:02:05.066Z,6.67
2019-06-10T08:04:35.218Z,6.43
2019-06-10T08:07:05.296Z,5.30
2019-06-10T08:09:35.810Z,6.13
2019-06-10T08:12:06.132Z,6.20
2019-06-10T08:14:37.417Z,8.20
2019-06-10T08:17:08.020Z,7.07
2019-06-10T08:19:40.353Z,7.17
2019-06-10T08:22:08.232Z,7.00
2019-06-10T08:24:39.384Z,6.75
2019-06-10T08:27:11.949Z,6.20
2019-06-10T08:29:44.405Z,6.45
2019-06-10T08:32:13.062Z,6.08
2019-06-10T08:34:45.015Z,6.45
2019-06-10T08:37:13.985Z,6.40
2019-06-10T08:39:45.711Z,6.58
2019-06-10T08:42:14.223Z,8.58
2019-06-10T08:44:45.614Z,5.97
2019-06-10T08:47:15.926Z,6.22
2019-06-10T08:49:46.295Z,7.70
2019-06-10T08:52:16.511Z,5.83
2019-06-10T08:57:23.244Z,6.22
2019-06-10T08:59:53.328Z,6.05
2019-06-10T09:02:23.172Z,6.47
2019-06-10T09:04:53.929Z,6.05
2019-06-10T09:07:23.865Z,5.95
2019-06-10T09:09:54.272Z,6.87
2019-06-10T09:12:32.927Z,7.00
2019-06-10T09:14:54.749Z,6.08
2019-06-10T09:17:24.292Z,6.12
2019-06-10T09:19:54.182Z,6.75
2019-06-10T09:22:24.459Z,6.83
2019-06-10T09:24:56.337Z,8.20
2019-06-10T09:27:26.992Z,7.15
2019-06-10T09:29:55.760Z,7.83
2019-06-10T09:32:24.931Z,8.30
2019-06-10T09:34:57.318Z,7.30
2019-06-10T09:37:25.183Z,9.35
2019-06-10T09:39:59.486Z,8.33
2019-06-10T09:42:25.366Z,7.83
2019-06-10T09:44:55.644Z,7.80
2019-06-10T09:47:26.021Z,6.28
2019-06-10T09:49:55.744Z,5.95
2019-06-10T09:52:37.257Z,7.15
2019-06-10T09:55:49.729Z,5.95
2019-06-10T09:58:17.402Z,8.68
2019-06-10T10:01:26.614Z,6.28
2019-06-10T10:04:00.115Z,5.87
2019-06-10T10:06:26.847Z,8.70
2019-06-10T10:09:37.041Z,7.00
2019-06-10T10:12:07.269Z,7.72
2019-06-10T10:14:36.800Z,7.35
2019-06-10T10:20:03.255Z,6.75
2019-06-10T10:22:34.062Z,7.05
2019-06-10T10:25:03.695Z,9.15
2019-06-10T10:27:57.250Z,5.90
2019-06-10T10:31:05.277Z,7.45
2019-06-10T10:33:34.529Z,4.58
2019-06-10T10:36:03.772Z,6.37
2019-06-10T10:38:34.459Z,6.80
2019-06-10T10:44:13.779Z,8.58
2019-06-10T10:46:44.393Z,5.97
2019-06-10T10:49:14.812Z,4.08
2019-06-10T10:51:44.916Z,5.90
2019-06-10T10:54:28.487Z,6.03
2019-06-10T10:56:49.256Z,5.75
2019-06-10T10:59:18.275Z,10.08
2019-06-10T11:01:47.605Z,9.28
2019-06-10T11:04:17.057Z,6.92
2019-06-10T11:10:03.621Z,7.60
2019-06-10T11:15:40.455Z,6.20
2019-06-10T11:18:30.415Z,6.33
2019-06-10T11:21:02.488Z,5.90
2019-06-10T11:23:34.262Z,5.92
2019-06-10T11:26:01.632Z,5.12
2019-06-10T11:28:32.145Z,4.67
2019-06-10T11:31:03.823Z,7.55
2019-06-10T11:33:33.679Z,6.40
2019-06-10T11:36:03.799Z,7.97
2019-06-10T11:38:33.237Z,6.12
2019-06-10T11:41:02.479Z,6.15
2019-06-10T11:43:33.132Z,5.87
2019-06-10T11:46:07.523Z,6.92
2019-06-10T11:48:34.419Z,7.70
2019-06-10T11:51:04.867Z,4.65
2019-06-10T11:53:35.288Z,5.20
2019-06-10T11:56:05.333Z,8.08
2019-06-10T11:58:34.583Z,7.37
2019-06-10T12:01:04.359Z,7.00
2019-06-10T12:03:35.590Z,6.05
2019-06-10T12:06:05.703Z,7.45
2019-06-10T12:08:36.442Z,7.87
2019-06-10T12:11:06.143Z,7.80
2019-06-10T12:13:35.766Z,7.15
2019-06-10T12:18:36.399Z,6.10
2019-06-10T12:21:05.604Z,9.90
2019-06-10T12:23:35.221Z,6.95
2019-06-10T12:26:05.138Z,6.95
2019-06-10T12:28:35.595Z,7.42
2019-06-10T12:31:07.141Z,8.40
2019-06-10T12:33:35.849Z,6.95
2019-06-10T12:36:07.236Z,7.20
2019-06-10T12:38:36.212Z,8.18
2019-06-10T12:41:08.922Z,7.80
2019-06-10T12:43:36.779Z,8.60
2019-06-10T12:46:05.978Z,7.45
2019-06-10T12:48:35.245Z,6.97
2019-06-10T12:51:08.822Z,6.50
2019-06-10T12:53:35.879Z,6.80
2019-06-10T12:56:44.464Z,6.62
2019-06-10T12:59:13.878Z,7.67
2019-06-10T13:01:44.664Z,6.40
2019-06-10T13:04:14.167Z,9.58
2019-06-10T13:07:23.063Z,8.43
2019-06-10T13:10:33.306Z,8.68
2019-06-10T13:13:06.711Z,8.30
2019-06-10T13:15:34.015Z,8.65
2019-06-10T13:18:06.178Z,7.70
2019-06-10T13:20:34.257Z,7.70
2019-06-10T13:23:17.315Z,7.80
2019-06-10T13:25:34.504Z,8.25
2019-06-10T13:28:06.699Z,8.78
2019-06-10T13:30:35.242Z,7.03
2019-06-10T13:33:10.453Z,6.53
2019-06-10T13:35:35.875Z,7.17
2019-06-10T13:38:06.857Z,7.12
2019-06-10T13:40:36.129Z,6.65
2019-06-10T13:43:06.061Z,9.00
2019-06-10T13:45:36.360Z,7.53
2019-06-10T13:48:08.389Z,8.25
2019-06-10T13:50:36.912Z,7.85
2019-06-10T13:53:07.004Z,8.35
2019-06-10T13:55:37.083Z,7.58
2019-06-10T13:58:09.555Z,7.30
2019-06-10T14:03:26.139Z,8.13
2019-06-10T14:05:59.515Z,7.20
2019-06-10T14:08:26.392Z,7.28
2019-06-10T14:10:55.603Z,7.15
2019-06-10T14:13:26.243Z,6.92
2019-06-10T14:15:56.205Z,8.10
2019-06-10T14:18:25.493Z,6.85
2019-06-10T14:20:55.352Z,5.75
2019-06-10T14:23:24.619Z,6.35
2019-06-10T14:25:53.809Z,9.28
2019-06-10T14:28:38.771Z,9.13
2019-06-10T14:30:54.085Z,7.35
2019-06-10T14:33:23.573Z,6.40
2019-06-10T14:35:53.432Z,9.65
2019-06-10T14:38:23.766Z,8.20
2019-06-10T14:40:53.043Z,8.08
2019-06-10T14:43:23.114Z,8.15
2019-06-10T14:45:53.655Z,6.70
2019-06-10T14:48:24.248Z,7.35
2019-06-10T14:50:53.749Z,7.35
2019-06-10T14:53:23.350Z,6.53
2019-06-10T14:55:53.937Z,8.20
2019-06-10T14:58:23.433Z,7.92
2019-06-10T15:00:54.781Z,5.60
2019-06-10T15:03:25.673Z,6.25
2019-06-10T15:05:55.645Z,5.55
2019-06-10T15:08:25.256Z,7.40
2019-06-10T15:10:54.477Z,7.22
2019-06-10T15:13:23.865Z,5.92
2019-06-10T15:15:53.528Z,6.42
2019-06-10T15:18:23.881Z,6.92
2019-06-10T15:20:54.393Z,7.35
2019-06-10T15:23:23.926Z,8.25
2019-06-10T15:25:56.903Z,6.80
2019-06-10T15:28:24.569Z,5.95
2019-06-10T15:30:53.822Z,8.83
2019-06-10T15:33:23.901Z,6.53
2019-06-10T15:35:54.083Z,8.68
2019-06-10T15:38:23.577Z,7.42
2019-06-10T15:40:54.269Z,10.30
2019-06-10T15:43:23.812Z,6.25
2019-06-10T15:45:54.508Z,6.12
2019-06-10T15:48:25.524Z,7.08
2019-06-10T15:50:55.037Z,5.60
2019-06-10T15:53:25.735Z,3.87
2019-06-10T15:56:13.081Z,7.10
2019-06-10T15:58:26.280Z,5.80
2019-06-10T16:00:55.485Z,3.10
2019-06-10T16:03:25.634Z,2.90
2019-06-10T16:05:55.695Z,0.90
2019-06-10T16:08:25.271Z,1.90
2019-06-10T16:10:54.761Z,1.87
2019-06-10T16:13:25.922Z,2.93
2019-06-10T16:15:55.398Z,4.47
2019-06-10T16:18:27.934Z,3.37
2019-06-10T16:20:55.601Z,3.27
2019-06-10T16:23:26.639Z,4.20
2019-06-10T16:25:55.837Z,5.67
2019-06-10T16:28:26.456Z,5.63
2019-06-10T16:30:56.074Z,8.60
2019-06-10T16:33:27.676Z,7.07
2019-06-10T16:35:56.668Z,6.50
2019-06-10T16:38:27.268Z,6.20
2019-06-10T16:40:57.340Z,7.17
2019-06-10T16:43:27.732Z,7.27
2019-06-10T16:45:58.028Z,8.17
2019-06-10T16:48:27.185Z,7.57
2019-06-10T16:50:56.457Z,6.10
2019-06-10T16:53:29.872Z,6.80
2019-06-10T16:55:56.999Z,8.27
2019-06-10T16:58:27.975Z,6.37
2019-06-10T17:00:57.182Z,6.90
2019-06-10T17:03:27.250Z,7.60
2019-06-10T17:05:57.351Z,6.80
2019-06-10T17:11:03.309Z,7.43
2019-06-10T17:13:32.905Z,6.43
2019-06-10T17:16:03.402Z,6.70
2019-06-10T17:18:33.803Z,6.50
2019-06-10T17:21:04.367Z,6.17
2019-06-10T17:23:36.550Z,6.77
2019-06-10T17:26:06.352Z,7.67
2019-06-10T17:28:36.863Z,7.07
2019-06-10T17:31:06.579Z,7.00
2019-06-10T17:33:36.254Z,5.37
2019-06-10T17:36:05.867Z,5.80
2019-06-10T17:38:35.480Z,5.23
2019-06-10T17:41:05.083Z,6.67
2019-06-10T17:43:34.617Z,6.30
2019-06-10T17:46:05.336Z,5.47
2019-06-10T17:48:34.528Z,6.67
2019-06-10T17:51:04.136Z,7.27
2019-06-10T17:53:34.954Z,7.10
2019-06-10T17:56:04.304Z,9.93
2019-06-10T17:58:50.163Z,7.93
2019-06-10T18:01:04.587Z,6.80
2019-06-10T18:03:35.767Z,5.60
2019-06-10T18:06:05.458Z,6.90
2019-06-10T18:08:36.373Z,6.00
2019-06-10T18:11:05.613Z,6.17
2019-06-10T18:13:36.052Z,7.50
2019-06-10T18:16:06.202Z,7.47
2019-06-10T18:18:37.269Z,6.80
2019-06-10T18:21:06.397Z,6.63
2019-06-10T18:23:35.652Z,7.10
2019-06-10T18:26:04.849Z,6.17
2019-06-10T18:28:52.733Z,6.97
2019-06-10T18:31:05.049Z,5.70
2019-06-10T18:33:37.506Z,7.57
2019-06-10T18:36:05.637Z,5.80
2019-06-10T18:38:37.137Z,5.83
2019-06-10T18:41:05.889Z,6.53
2019-06-10T18:43:35.710Z,7.13
2019-06-10T18:46:06.164Z,5.53
2019-06-10T18:48:38.202Z,4.40
2019-06-10T18:51:09.112Z,10.37
2019-06-10T18:53:39.229Z,7.97
2019-06-10T18:56:08.805Z,8.13
2019-06-10T18:58:39.041Z,8.23
2019-06-10T19:01:08.995Z,4.80
2019-06-10T19:03:39.658Z,7.03
2019-06-10T19:06:12.349Z,4.40
2019-06-10T19:08:43.963Z,6.13
2019-06-10T19:11:12.587Z,5.77
2019-06-10T19:13:43.609Z,4.53
2019-06-10T19:16:13.179Z,4.80
2019-06-10T19:18:43.728Z,4.50
2019-06-10T19:21:13.289Z,6.90
2019-06-10T19:23:44.275Z,6.20
2019-06-10T19:26:13.745Z,5.27
2019-06-10T19:28:45.379Z,5.40
2019-06-10T19:31:15.466Z,6.23
2019-06-10T19:33:45.639Z,5.77
2019-06-10T19:36:17.020Z,6.73
2019-06-10T19:38:46.290Z,6.90
2019-06-10T19:41:15.926Z,6.50
2019-06-10T19:43:45.591Z,6.30
2019-06-10T19:46:16.111Z,6.97
2019-06-10T19:48:57.017Z,5.20
2019-06-10T19:51:17.167Z,5.57
2019-06-10T19:53:46.362Z,6.17
2019-06-10T19:56:15.922Z,7.00
2019-06-10T19:58:46.526Z,5.17
2019-06-10T20:03:52.177Z,5.27
2019-06-10T20:06:22.789Z,5.97
2019-06-10T20:08:52.322Z,6.97
2019-06-10T20:11:23.011Z,5.90
2019-06-10T20:13:53.066Z,7.83
2019-06-10T20:16:23.513Z,7.97
2019-06-10T20:18:53.689Z,7.63
2019-06-10T20:21:23.713Z,6.30
2019-06-10T20:23:53.132Z,7.63
2019-06-10T20:26:22.635Z,7.67
2019-06-10T20:28:55.478Z,8.07
2019-06-10T20:31:25.079Z,6.07
2019-06-10T20:33:54.331Z,5.93
2019-06-10T20:36:27.076Z,8.10
2019-06-10T20:38:54.924Z,6.20
2019-06-10T20:41:24.523Z,6.67
2019-06-10T20:43:55.569Z,5.60
2019-06-10T20:46:24.748Z,8.23
2019-06-10T20:48:54.707Z,6.20
2019-06-10T20:51:27.213Z,6.90
2019-06-10T20:53:56.546Z,7.00
2019-06-10T20:56:25.755Z,6.30
2019-06-10T20:58:55.010Z,6.97
2019-06-10T21:01:25.566Z,6.90
2019-06-10T21:03:56.020Z,7.23
2019-06-10T21:07:04.665Z,6.10
2019-06-10T21:10:16.833Z,6.90
2019-06-10T21:12:46.763Z,7.17
2019-06-10T21:15:35.059Z,6.60
2019-06-10T21:18:04.431Z,6.87
2019-06-10T21:20:56.110Z,7.03
2019-06-10T21:23:24.561Z,7.07
2019-06-10T21:25:53.772Z,8.87
2019-06-10T21:28:23.023Z,6.70
2019-06-10T21:30:57.722Z,6.77
2019-06-10T21:33:23.506Z,7.00
2019-06-10T21:35:55.051Z,7.40
2019-06-10T21:38:24.381Z,7.00
2019-06-10T21:40:54.220Z,6.30
2019-06-10T21:43:24.973Z,7.37
2019-06-10T21:45:57.650Z,6.60
2019-06-10T21:48:25.512Z,8.33
2019-06-10T21:50:56.051Z,8.37
2019-06-10T21:53:26.033Z,7.63
2019-06-10T21:55:55.531Z,7.20
2019-06-10T21:58:25.141Z,7.77
2019-06-10T22:01:08.356Z,6.90
2019-06-10T22:03:25.478Z,7.10
2019-06-10T22:05:54.675Z,7.47
2019-06-10T22:08:24.191Z,7.77
2019-06-10T22:10:56.178Z,7.10
2019-06-10T22:13:24.361Z,6.57
2019-06-10T22:15:56.886Z,7.40
2019-06-10T22:18:24.864Z,7.37
2019-06-10T22:20:57.226Z,7.50
2019-06-10T22:23:25.055Z,6.93
2019-06-10T22:25:57.561Z,7.60
2019-06-10T22:28:26.075Z,7.53
2019-06-10T22:31:14.647Z,7.70
2019-06-10T22:33:26.238Z,7.63
2019-06-10T22:36:14.586Z,6.83
2019-06-10T22:38:43.837Z,7.13
2019-06-10T22:41:13.089Z,7.00
2019-06-10T22:43:42.682Z,7.37
2019-06-10T22:46:13.262Z,6.80
2019-06-10T22:48:42.617Z,6.50
2019-06-10T22:51:12.359Z,7.30
2019-06-10T22:53:42.837Z,7.37
2019-06-10T22:56:12.498Z,6.77
2019-06-10T22:58:42.337Z,7.93
2019-06-10T23:01:12.453Z,8.10
2019-06-10T23:04:03.771Z,7.63
2019-06-10T23:06:34.002Z,8.77
2019-06-10T23:11:56.087Z,7.03
2019-06-10T23:14:25.140Z,8.30
2019-06-10T23:16:56.708Z,7.57
2019-06-10T23:19:27.267Z,8.10
2019-06-10T23:22:15.390Z,8.77
2019-06-10T23:24:44.608Z,7.63
2019-06-10T23:27:13.873Z,7.93
2019-06-10T23:30:10.811Z,8.57
2019-06-10T23:32:33.163Z,8.73
2019-06-10T23:35:23.114Z,8.77
2019-06-10T23:38:13.139Z,9.23
2019-06-10T23:40:43.142Z,9.37
2019-06-10T23:43:13.808Z,9.53
2019-06-10T23:45:43.040Z,10.23
2019-06-10T23:48:13.330Z,9.57
2019-06-10T23:50:43.887Z,10.30
2019-06-10T23:53:14.511Z,9.67
2019-06-10T23:55:43.767Z,11.33
2019-06-10T23:58:13.187Z,10.97
